createdAt,value
2019-03-22T00:00:45.731Z,97233.92
2019-03-22T00:03:11.898Z,97236.76
2019-03-22T00:05:38.034Z,97235.28
2019-03-22T00:08:04.157Z,97229.02
2019-03-22T00:10:30.309Z,97228.50
2019-03-22T00:12:56.539Z,97231.61
2019-03-22T00:15:22.667Z,97220.11
2019-03-22T00:17:48.731Z,97228.34
2019-03-22T00:20:14.846Z,97230.02
2019-03-22T00:22:41.203Z,97222.07
2019-03-22T00:25:08.768Z,97218.75
2019-03-22T00:27:34.900Z,97219.39
2019-03-22T00:30:01.025Z,97222.66
2019-03-22T00:32:27.152Z,97226.28
2019-03-22T00:34:53.320Z,97224.97
2019-03-22T00:37:19.440Z,97226.13
2019-03-22T00:39:45.595Z,97216.40
2019-03-22T00:42:11.706Z,97214.08
2019-03-22T00:44:37.831Z,97202.86
2019-03-22T00:47:03.962Z,97207.12
2019-03-22T00:49:30.124Z,97201.53
2019-03-22T00:51:56.247Z,97204.80
2019-03-22T00:54:22.397Z,97205.13
2019-03-22T00:56:48.440Z,97200.49
2019-03-22T00:59:14.461Z,97196.29
2019-03-22T01:01:40.591Z,97190.81
2019-03-22T01:04:06.724Z,97196.66
2019-03-22T01:06:32.858Z,97200.09
2019-03-22T01:08:59.281Z,97193.61
2019-03-22T01:11:25.429Z,97199.60
2019-03-22T01:13:51.546Z,97201.13
2019-03-22T01:16:17.669Z,97203.22
2019-03-22T01:18:43.689Z,97199.38
2019-03-22T01:21:09.916Z,97199.98
2019-03-22T01:23:35.924Z,97191.52
2019-03-22T01:26:02.062Z,97195.05
2019-03-22T01:28:28.096Z,97194.82
2019-03-22T01:30:54.167Z,97194.61
2019-03-22T01:33:23.853Z,97194.70
2019-03-22T01:35:49.926Z,97202.41
2019-03-22T01:38:16.126Z,97205.67
2019-03-22T01:40:42.159Z,97200.72
2019-03-22T01:43:08.288Z,97194.77
2019-03-22T01:45:34.424Z,97206.15
2019-03-22T01:48:00.587Z,97197.04
2019-03-22T01:50:26.724Z,97205.37
2019-03-22T01:52:52.902Z,97202.02
2019-03-22T01:55:18.923Z,97201.13
2019-03-22T01:57:53.085Z,97205.17
2019-03-22T02:00:14.308Z,97202.48
2019-03-22T02:02:40.420Z,97203.40
2019-03-22T02:05:06.558Z,97204.50
2019-03-22T02:07:32.683Z,97211.84
2019-03-22T02:09:58.729Z,97206.88
2019-03-22T02:12:24.747Z,97208.19
2019-03-22T02:14:50.781Z,97207.72
2019-03-22T02:17:16.913Z,97207.50
2019-03-22T02:19:43.076Z,97201.84
2019-03-22T02:22:10.277Z,97202.21
2019-03-22T02:24:36.331Z,97205.45
2019-03-22T02:27:02.492Z,97197.25
2019-03-22T02:29:30.818Z,97189.37
2019-03-22T02:31:56.780Z,97196.12
2019-03-22T02:34:22.794Z,97189.63
2019-03-22T02:36:48.848Z,97185.47
2019-03-22T02:39:15.089Z,97185.87
2019-03-22T02:41:41.338Z,97173.03
2019-03-22T02:44:07.484Z,97177.03
2019-03-22T02:46:33.614Z,97174.11
2019-03-22T02:48:59.746Z,97175.75
2019-03-22T02:51:25.792Z,97166.78
2019-03-22T02:53:51.930Z,97175.49
2019-03-22T02:56:18.057Z,97171.67
2019-03-22T02:58:44.188Z,97178.12
2019-03-22T03:01:10.500Z,97185.57
2019-03-22T03:03:36.677Z,97182.14
2019-03-22T03:06:02.925Z,97190.56
2019-03-22T03:08:29.049Z,97184.53
2019-03-22T03:10:55.181Z,97181.77
2019-03-22T03:13:21.306Z,97182.45
2019-03-22T03:15:47.446Z,97181.80
2019-03-22T03:18:13.670Z,97190.84
2019-03-22T03:20:39.804Z,97193.98
2019-03-22T03:23:05.888Z,97192.66
2019-03-22T03:25:32.052Z,97189.67
2019-03-22T03:27:58.092Z,97182.53
2019-03-22T03:30:24.230Z,97195.92
2019-03-22T03:32:50.492Z,97202.34
2019-03-22T03:35:16.915Z,97198.88
2019-03-22T03:37:43.046Z,97199.70
2019-03-22T03:40:10.283Z,97196.21
2019-03-22T03:42:36.422Z,97196.54
2019-03-22T03:45:05.795Z,97191.62
2019-03-22T03:47:31.745Z,97193.12
2019-03-22T03:49:57.905Z,97188.34
2019-03-22T03:52:23.970Z,97186.33
2019-03-22T03:54:49.994Z,97190.70
2019-03-22T03:57:16.143Z,97189.52
2019-03-22T03:59:42.273Z,97190.27
2019-03-22T04:02:08.408Z,97184.57
2019-03-22T04:04:34.524Z,97185.41
2019-03-22T04:07:00.781Z,97181.80
2019-03-22T04:09:26.926Z,97184.97
2019-03-22T04:11:53.052Z,97191.53
2019-03-22T04:14:19.124Z,97185.17
2019-03-22T04:16:45.155Z,97190.46
2019-03-22T04:19:11.210Z,97191.69
2019-03-22T04:21:37.334Z,97194.02
2019-03-22T04:24:03.472Z,97197.19
2019-03-22T04:26:29.496Z,97198.80
2019-03-22T04:29:06.549Z,97199.48
2019-03-22T04:31:23.698Z,97194.41
2019-03-22T04:33:49.714Z,97200.66
2019-03-22T04:36:15.964Z,97202.17
2019-03-22T04:38:48.300Z,97198.35
2019-03-22T04:41:10.135Z,97195.87
2019-03-22T04:43:36.301Z,97198.72
2019-03-22T04:46:04.652Z,97192.30
2019-03-22T04:48:34.396Z,97196.92
2019-03-22T04:51:03.830Z,97190.68
2019-03-22T04:53:33.546Z,97187.22
2019-03-22T04:56:00.475Z,97184.44
2019-03-22T04:58:27.437Z,97191.06
2019-03-22T05:00:55.267Z,97191.28
2019-03-22T05:03:25.965Z,97179.63
2019-03-22T05:05:54.913Z,97187.33
2019-03-22T05:08:23.965Z,97188.14
2019-03-22T05:10:51.400Z,97182.94
2019-03-22T05:13:19.243Z,97180.85
2019-03-22T05:15:45.872Z,97183.17
2019-03-22T05:18:12.008Z,97184.02
2019-03-22T05:20:40.143Z,97182.88
2019-03-22T05:23:07.580Z,97183.09
2019-03-22T05:25:38.964Z,97178.98
2019-03-22T05:28:08.506Z,97186.58
2019-03-22T05:30:58.245Z,97178.84
2019-03-22T05:33:24.362Z,97182.30
2019-03-22T05:35:50.395Z,97182.16
2019-03-22T05:38:16.524Z,97178.89
2019-03-22T05:40:42.659Z,97173.05
2019-03-22T05:43:08.755Z,97169.10
2019-03-22T05:45:34.796Z,97174.61
2019-03-22T05:48:00.815Z,97181.33
2019-03-22T05:50:26.860Z,97183.03
2019-03-22T05:52:52.921Z,97183.41
2019-03-22T05:55:18.953Z,97184.30
2019-03-22T05:57:44.976Z,97187.59
2019-03-22T06:00:13.007Z,97185.49
2019-03-22T06:02:39.182Z,97188.42
2019-03-22T06:05:05.939Z,97188.48
2019-03-22T06:07:32.100Z,97196.70
2019-03-22T06:09:58.167Z,97186.33
2019-03-22T06:12:24.337Z,97186.53
2019-03-22T06:14:51.749Z,97190.02
2019-03-22T06:17:17.909Z,97196.92
2019-03-22T06:19:44.062Z,97205.19
2019-03-22T06:22:10.436Z,97206.09
2019-03-22T06:24:36.561Z,97207.78
2019-03-22T06:27:02.701Z,97205.17
2019-03-22T06:29:28.902Z,97201.33
2019-03-22T06:31:56.296Z,97187.51
2019-03-22T06:34:22.516Z,97183.28
2019-03-22T06:36:48.730Z,97185.12
2019-03-22T06:39:14.873Z,97195.34
2019-03-22T06:41:40.990Z,97203.61
2019-03-22T06:44:07.287Z,97197.28
2019-03-22T06:46:33.529Z,97207.19
2019-03-22T06:48:59.794Z,97203.14
2019-03-22T06:51:25.841Z,97204.19
2019-03-22T06:53:56.511Z,97198.98
2019-03-22T06:56:22.708Z,97199.19
2019-03-22T06:58:48.959Z,97198.75
2019-03-22T07:01:15.217Z,97202.22
2019-03-22T07:03:41.507Z,97196.36
2019-03-22T07:06:07.759Z,97191.77
2019-03-22T07:08:34.021Z,97193.29
2019-03-22T07:11:00.265Z,97186.87
2019-03-22T07:13:26.729Z,97191.66
2019-03-22T07:15:52.995Z,97202.75
2019-03-22T07:18:19.323Z,97199.99
2019-03-22T07:20:45.463Z,97200.87
2019-03-22T07:23:11.604Z,97207.17
2019-03-22T07:25:37.895Z,97214.28
2019-03-22T07:28:05.563Z,97222.05
2019-03-22T07:30:31.937Z,97226.72
2019-03-22T07:32:58.078Z,97231.34
2019-03-22T07:35:24.099Z,97230.89
2019-03-22T07:37:50.229Z,97237.32
2019-03-22T07:40:16.376Z,97235.39
2019-03-22T07:42:43.241Z,97237.08
2019-03-22T07:45:10.402Z,97238.09
2019-03-22T07:47:36.541Z,97238.12
2019-03-22T07:50:08.271Z,97251.65
2019-03-22T07:52:34.394Z,97249.54
2019-03-22T07:55:00.546Z,97258.28
2019-03-22T07:57:26.942Z,97262.27
2019-03-22T07:59:53.066Z,97268.20
2019-03-22T08:02:19.335Z,97244.95
2019-03-22T08:04:45.466Z,97247.45
2019-03-22T08:07:11.607Z,97253.73
2019-03-22T08:09:37.586Z,97246.80
2019-03-22T08:12:03.880Z,97249.12
2019-03-22T08:14:29.917Z,97260.20
2019-03-22T08:17:06.513Z,97248.50
2019-03-22T08:19:24.158Z,97243.88
2019-03-22T08:21:50.374Z,97265.84
2019-03-22T08:24:16.430Z,97260.70
2019-03-22T08:26:42.829Z,97263.64
2019-03-22T08:29:08.983Z,97270.58
2019-03-22T08:31:34.911Z,97268.05
2019-03-22T08:34:01.019Z,97265.40
2019-03-22T08:36:27.142Z,97261.05
2019-03-22T08:38:53.203Z,97268.77
2019-03-22T08:41:19.399Z,97267.09
2019-03-22T08:43:45.611Z,97261.97
2019-03-22T08:46:11.648Z,97263.11
2019-03-22T08:48:37.872Z,97261.92
2019-03-22T08:51:03.972Z,97265.05
2019-03-22T08:53:30.137Z,97258.25
2019-03-22T08:55:56.272Z,97257.72
2019-03-22T08:58:22.294Z,97267.16
2019-03-22T09:00:57.307Z,97269.81
2019-03-22T09:03:17.698Z,97266.67
2019-03-22T09:05:45.284Z,97280.22
2019-03-22T09:08:11.811Z,97286.02
2019-03-22T09:10:38.139Z,97271.80
2019-03-22T09:13:04.328Z,97284.91
2019-03-22T09:15:40.742Z,97280.23
2019-03-22T09:18:01.544Z,97274.94
2019-03-22T09:20:29.848Z,97274.94
2019-03-22T09:22:55.977Z,97274.27
2019-03-22T09:25:22.227Z,97281.55
2019-03-22T09:27:48.423Z,97287.55
2019-03-22T09:30:14.842Z,97287.56
2019-03-22T09:32:41.111Z,97282.79
2019-03-22T09:35:07.649Z,97287.44
2019-03-22T09:37:33.874Z,97282.80
2019-03-22T09:40:00.470Z,97285.97
2019-03-22T09:42:26.819Z,97278.38
2019-03-22T09:44:53.989Z,97281.34
2019-03-22T09:47:20.260Z,97283.02
2019-03-22T09:49:46.532Z,97280.37
2019-03-22T09:52:12.856Z,97282.49
2019-03-22T09:54:39.134Z,97276.39
2019-03-22T09:57:05.526Z,97276.72
2019-03-22T09:59:31.611Z,97278.70
2019-03-22T10:01:57.826Z,97278.69
2019-03-22T10:04:24.190Z,97269.42
2019-03-22T10:06:50.330Z,97258.97
2019-03-22T10:09:16.612Z,97261.80
2019-03-22T10:11:42.856Z,97252.22
2019-03-22T10:14:11.797Z,97258.97
2019-03-22T10:16:38.088Z,97259.15
2019-03-22T10:19:07.362Z,97262.80
2019-03-22T10:21:33.664Z,97249.56
2019-03-22T10:23:59.817Z,97259.81
2019-03-22T10:26:28.845Z,97253.14
2019-03-22T10:28:55.200Z,97248.86
2019-03-22T10:31:21.411Z,97242.55
2019-03-22T10:33:47.555Z,97240.91
2019-03-22T10:36:13.716Z,97244.03
2019-03-22T10:38:41.422Z,97234.05
2019-03-22T10:41:07.551Z,97229.23
2019-03-22T10:43:33.811Z,97235.98
2019-03-22T10:46:00.075Z,97229.52
2019-03-22T10:48:26.270Z,97232.30
2019-03-22T10:50:52.448Z,97223.45
2019-03-22T10:53:18.698Z,97221.44
2019-03-22T10:55:44.826Z,97214.61
2019-03-22T10:58:20.890Z,97211.30
2019-03-22T11:00:39.097Z,97210.31
2019-03-22T11:03:05.211Z,97207.95
2019-03-22T11:05:31.826Z,97211.20
2019-03-22T11:07:57.981Z,97203.72
2019-03-22T11:10:24.234Z,97197.91
2019-03-22T11:12:50.515Z,97195.69
2019-03-22T11:15:16.798Z,97200.69
2019-03-22T11:17:43.046Z,97196.81
2019-03-22T11:20:12.239Z,97195.77
2019-03-22T11:22:41.422Z,97191.58
2019-03-22T11:25:08.212Z,97202.16
2019-03-22T11:27:34.549Z,97195.11
2019-03-22T11:30:03.312Z,97198.69
2019-03-22T11:32:29.567Z,97199.30
2019-03-22T11:34:55.770Z,97201.77
2019-03-22T11:37:22.032Z,97200.54
2019-03-22T11:39:48.198Z,97203.93
2019-03-22T11:42:16.350Z,97207.16
2019-03-22T11:44:42.472Z,97208.09
2019-03-22T11:47:08.853Z,97196.80
2019-03-22T11:49:35.167Z,97199.91
2019-03-22T11:52:01.318Z,97193.00
2019-03-22T11:54:30.415Z,97194.22
2019-03-22T11:56:58.490Z,97195.70
2019-03-22T11:59:24.760Z,97194.75
2019-03-22T12:01:51.059Z,97192.12
2019-03-22T12:04:17.304Z,97194.29
2019-03-22T12:06:43.649Z,97185.98
2019-03-22T12:09:09.975Z,97186.78
2019-03-22T12:11:38.034Z,97181.75
2019-03-22T12:14:04.220Z,97191.61
2019-03-22T12:16:30.542Z,97180.80
2019-03-22T12:18:56.856Z,97181.14
2019-03-22T12:21:23.064Z,97179.70
2019-03-22T12:23:49.200Z,97175.64
2019-03-22T12:26:16.849Z,97163.20
2019-03-22T12:28:43.003Z,97161.19
2019-03-22T12:31:10.928Z,97156.28
2019-03-22T12:33:37.514Z,97163.69
2019-03-22T12:36:07.198Z,97164.52
2019-03-22T12:38:33.782Z,97153.36
2019-03-22T12:41:06.176Z,97149.38
2019-03-22T12:43:46.081Z,97148.20
2019-03-22T12:50:01.422Z,97141.72
2019-03-22T12:52:27.795Z,97143.55
2019-03-22T12:54:57.873Z,97124.46
2019-03-22T12:57:32.494Z,97129.47
2019-03-22T13:00:04.563Z,97129.20
2019-03-22T13:02:41.847Z,97128.26
2019-03-22T13:05:00.678Z,97123.11
2019-03-22T13:07:26.935Z,97104.05
2019-03-22T13:09:53.274Z,97104.19
2019-03-22T13:12:19.607Z,97099.17
2019-03-22T13:14:45.970Z,97098.09
2019-03-22T13:17:17.424Z,97095.38
2019-03-22T13:19:43.876Z,97090.48
2019-03-22T13:22:10.374Z,97090.25
2019-03-22T13:24:36.804Z,97091.92
2019-03-22T13:27:03.124Z,97093.69
2019-03-22T13:29:29.576Z,97099.23
2019-03-22T13:31:55.849Z,97091.45
2019-03-22T13:34:22.029Z,97091.76
2019-03-22T13:36:48.070Z,97094.22
2019-03-22T13:39:14.066Z,97087.77
2019-03-22T13:41:41.894Z,97096.28
2019-03-22T13:44:08.281Z,97092.52
2019-03-22T13:46:40.601Z,97091.09
2019-03-22T13:49:05.975Z,97101.73
2019-03-22T13:51:32.282Z,97098.48
2019-03-22T13:54:01.569Z,97099.28
2019-03-22T13:56:27.519Z,97104.16
2019-03-22T13:58:54.071Z,97100.64
2019-03-22T14:01:23.262Z,97101.93
2019-03-22T14:03:49.727Z,97105.69
2019-03-22T14:06:17.509Z,97111.44
2019-03-22T14:08:44.040Z,97108.78
2019-03-22T14:11:10.414Z,97109.80
2019-03-22T14:13:37.176Z,97103.55
2019-03-22T14:16:03.760Z,97096.67
2019-03-22T14:18:32.466Z,97094.01
2019-03-22T14:21:48.379Z,97079.38
2019-03-22T14:24:18.130Z,97056.03
2019-03-22T14:26:48.299Z,97077.18
2019-03-22T14:30:10.151Z,97065.91
2019-03-22T14:31:51.383Z,97064.97
2019-03-22T14:34:17.639Z,97066.56
2019-03-22T14:36:44.009Z,97067.76
2019-03-22T14:39:10.265Z,97071.20
2019-03-22T14:41:36.565Z,97067.31
2019-03-22T14:44:04.218Z,97057.27
2019-03-22T14:46:32.447Z,97054.22
2019-03-22T14:49:00.532Z,97054.75
2019-03-22T14:51:26.819Z,97049.73
2019-03-22T14:53:53.075Z,97059.23
2019-03-22T14:56:19.492Z,97056.78
2019-03-22T14:58:45.930Z,97067.52
2019-03-22T15:01:36.108Z,97057.34
2019-03-22T15:04:02.565Z,97047.88
2019-03-22T15:06:29.302Z,97069.89
2019-03-22T15:08:57.415Z,97078.06
2019-03-22T15:11:24.004Z,97070.67
2019-03-22T15:13:52.277Z,97071.42
2019-03-22T15:16:20.433Z,97086.38
2019-03-22T15:19:04.031Z,97089.44
2019-03-22T15:21:49.024Z,97087.55
2019-03-22T15:24:26.383Z,97092.55
2019-03-22T15:27:09.666Z,97089.80
2019-03-22T15:30:00.708Z,97092.70
2019-03-22T15:32:37.994Z,97101.12
2019-03-22T15:35:07.031Z,97108.07
2019-03-22T15:37:47.716Z,97107.23
2019-03-22T15:43:16.865Z,97102.00
2019-03-22T15:45:43.462Z,97105.61
2019-03-22T15:48:10.506Z,97102.83
2019-03-22T15:50:39.403Z,97105.94
2019-03-22T15:53:32.427Z,97107.73
2019-03-22T15:56:00.973Z,97091.08
2019-03-22T15:58:27.275Z,97111.74
2019-03-22T16:00:59.574Z,97110.98
2019-03-22T16:03:26.223Z,97112.34
2019-03-22T16:05:52.742Z,97107.64
2019-03-22T16:08:19.288Z,97110.04
2019-03-22T16:11:24.229Z,97122.25
2019-03-22T16:13:46.449Z,97132.70
2019-03-22T16:16:12.694Z,97133.84
2019-03-22T16:18:38.819Z,97132.75
2019-03-22T16:21:05.076Z,97125.57
2019-03-22T16:23:31.267Z,97119.34
2019-03-22T16:25:57.389Z,97123.09
2019-03-22T16:28:23.697Z,97131.33
2019-03-22T16:30:49.846Z,97128.98
2019-03-22T16:33:15.992Z,97120.94
2019-03-22T16:35:42.271Z,97126.52
2019-03-22T16:38:08.511Z,97135.70
2019-03-22T16:40:34.747Z,97143.69
2019-03-22T16:43:00.900Z,97140.73
2019-03-22T16:45:35.396Z,97144.00
2019-03-22T16:48:01.658Z,97144.42
2019-03-22T16:50:27.837Z,97140.19
2019-03-22T16:52:54.021Z,97139.82
2019-03-22T16:55:24.116Z,97139.61
2019-03-22T16:57:50.636Z,97147.69
2019-03-22T17:00:19.143Z,97143.69
2019-03-22T17:02:45.633Z,97144.89
2019-03-22T17:05:11.774Z,97148.42
2019-03-22T17:07:38.067Z,97144.34
2019-03-22T17:10:06.406Z,97135.87
2019-03-22T17:12:32.820Z,97132.88
2019-03-22T17:14:59.292Z,97130.57
2019-03-22T17:17:25.485Z,97134.16
2019-03-22T17:19:51.953Z,97129.01
2019-03-22T17:22:18.369Z,97139.06
2019-03-22T17:24:44.743Z,97133.84
2019-03-22T17:27:11.205Z,97135.72
2019-03-22T17:29:39.418Z,97139.52
2019-03-22T17:32:05.875Z,97141.22
2019-03-22T17:34:32.282Z,97141.17
2019-03-22T17:36:58.697Z,97152.83
2019-03-22T17:39:25.053Z,97158.72
2019-03-22T17:41:54.115Z,97165.72
2019-03-22T17:44:20.448Z,97155.96
2019-03-22T17:46:46.920Z,97159.28
2019-03-22T17:49:13.038Z,97153.02
2019-03-22T17:51:39.419Z,97151.40
2019-03-22T17:54:07.725Z,97151.29
2019-03-22T17:56:34.174Z,97146.47
2019-03-22T17:59:00.482Z,97146.47
2019-03-22T18:01:27.104Z,97150.45
2019-03-22T18:03:53.218Z,97151.11
2019-03-22T18:06:19.612Z,97148.59
2019-03-22T18:08:46.397Z,97153.89
2019-03-22T18:11:12.747Z,97164.33
2019-03-22T18:13:39.131Z,97157.73
2019-03-22T18:16:05.755Z,97153.64
2019-03-22T18:18:32.130Z,97159.13
2019-03-22T18:21:00.447Z,97164.30
2019-03-22T18:23:35.461Z,97170.87
2019-03-22T18:25:55.307Z,97165.75
2019-03-22T18:28:21.451Z,97166.11
2019-03-22T18:30:47.566Z,97161.95
2019-03-22T18:33:13.695Z,97159.80
2019-03-22T18:35:39.707Z,97162.09
2019-03-22T18:38:05.928Z,97161.41
2019-03-22T18:40:32.092Z,97168.50
2019-03-22T18:42:58.216Z,97163.68
2019-03-22T18:45:24.253Z,97163.97
2019-03-22T18:47:50.383Z,97174.47
2019-03-22T18:50:16.547Z,97183.44
2019-03-22T18:52:42.696Z,97182.95
2019-03-22T18:55:09.119Z,97184.88
2019-03-22T18:57:35.295Z,97187.83
2019-03-22T19:00:01.796Z,97187.16
2019-03-22T19:02:27.911Z,97197.52
2019-03-22T19:04:54.074Z,97191.62
2019-03-22T19:07:20.211Z,97181.70
2019-03-22T19:09:46.389Z,97186.33
2019-03-22T19:12:12.522Z,97186.02
2019-03-22T19:14:38.653Z,97182.05
2019-03-22T19:17:04.878Z,97183.82
2019-03-22T19:19:31.024Z,97181.53
2019-03-22T19:21:57.327Z,97180.73
2019-03-22T19:24:23.344Z,97166.13
2019-03-22T19:26:51.071Z,97157.34
2019-03-22T19:29:17.222Z,97159.19
2019-03-22T19:31:43.454Z,97156.55
2019-03-22T19:34:09.514Z,97153.06
2019-03-22T19:36:35.657Z,97165.77
2019-03-22T19:39:01.814Z,97173.38
2019-03-22T19:41:27.921Z,97164.44
2019-03-22T19:43:54.076Z,97156.37
2019-03-22T19:46:20.351Z,97156.73
2019-03-22T19:48:46.490Z,97156.92
2019-03-22T19:51:12.727Z,97163.22
2019-03-22T19:53:38.867Z,97169.69
2019-03-22T19:56:04.992Z,97167.09
2019-03-22T19:58:31.117Z,97166.77
2019-03-22T20:00:57.394Z,97168.71
2019-03-22T20:03:23.532Z,97169.91
2019-03-22T20:05:49.706Z,97174.19
2019-03-22T20:08:15.830Z,97171.72
2019-03-22T20:10:41.956Z,97162.44
2019-03-22T20:13:08.068Z,97154.33
2019-03-22T20:15:34.188Z,97160.42
2019-03-22T20:18:00.300Z,97152.30
2019-03-22T20:20:26.337Z,97154.28
2019-03-22T20:22:52.453Z,97150.98
2019-03-22T20:25:18.619Z,97158.91
2019-03-22T20:27:44.778Z,97152.95
2019-03-22T20:30:15.520Z,97150.17
2019-03-22T20:32:41.659Z,97148.20
2019-03-22T20:35:16.284Z,97150.66
2019-03-22T20:37:37.020Z,97157.94
2019-03-22T20:40:05.586Z,97151.32
2019-03-22T20:42:31.751Z,97142.05
2019-03-22T20:44:58.457Z,97144.88
2019-03-22T20:47:24.647Z,97135.45
2019-03-22T20:49:50.669Z,97139.11
2019-03-22T20:52:16.808Z,97133.99
2019-03-22T20:54:42.937Z,97131.52
2019-03-22T20:57:09.084Z,97125.88
2019-03-22T20:59:35.250Z,97132.20
2019-03-22T21:02:01.369Z,97129.78
2019-03-22T21:04:27.485Z,97126.66
2019-03-22T21:06:53.626Z,97125.34
2019-03-22T21:09:19.667Z,97133.95
2019-03-22T21:11:45.908Z,97134.48
2019-03-22T21:14:11.964Z,97136.47
2019-03-22T21:16:38.101Z,97138.62
2019-03-22T21:19:04.224Z,97136.64
2019-03-22T21:21:36.356Z,97136.67
2019-03-22T21:23:58.437Z,97137.83
2019-03-22T21:26:24.452Z,97137.34
2019-03-22T21:28:55.614Z,97137.17
2019-03-22T21:31:21.842Z,97141.97
2019-03-22T21:33:47.910Z,97147.97
2019-03-22T21:36:14.040Z,97148.80
2019-03-22T21:38:40.209Z,97146.64
2019-03-22T21:41:06.327Z,97149.95
2019-03-22T21:43:32.666Z,97147.30
2019-03-22T21:45:59.230Z,97142.50
2019-03-22T21:48:25.602Z,97142.84
2019-03-22T21:50:52.059Z,97145.81
2019-03-22T21:53:18.509Z,97142.84
2019-03-22T21:55:44.992Z,97134.08
2019-03-22T21:58:14.754Z,97145.32
2019-03-22T22:00:41.213Z,97143.17
2019-03-22T22:03:07.730Z,97137.73
2019-03-22T22:05:33.959Z,97143.34
2019-03-22T22:08:03.288Z,97144.34
2019-03-22T22:10:29.446Z,97133.95
2019-03-22T22:12:55.813Z,97134.95
2019-03-22T22:15:21.988Z,97130.50
2019-03-22T22:18:01.172Z,97127.86
2019-03-22T22:20:28.436Z,97124.73
2019-03-22T22:22:47.067Z,97126.71
2019-03-22T22:25:13.192Z,97121.59
2019-03-22T22:27:39.419Z,97122.61
2019-03-22T22:30:06.835Z,97119.96
2019-03-22T22:32:32.981Z,97107.27
2019-03-22T22:34:59.168Z,97096.52
2019-03-22T22:37:25.288Z,97102.81
2019-03-22T22:39:51.444Z,97105.31
2019-03-22T22:42:17.586Z,97106.80
2019-03-22T22:44:43.734Z,97110.29
2019-03-22T22:47:09.768Z,97106.17
2019-03-22T22:49:35.925Z,97095.59
2019-03-22T22:52:02.090Z,97092.48
2019-03-22T22:54:28.209Z,97100.55
2019-03-22T22:56:54.322Z,97102.05
2019-03-22T22:59:21.497Z,97098.41
2019-03-22T23:01:47.584Z,97103.87
2019-03-22T23:04:13.693Z,97101.55
2019-03-22T23:06:39.847Z,97111.10
2019-03-22T23:09:06.064Z,97107.47
2019-03-22T23:11:32.197Z,97105.47
2019-03-22T23:13:58.354Z,97110.73
2019-03-22T23:16:36.763Z,97113.65
2019-03-22T23:19:02.928Z,97106.05
2019-03-22T23:21:29.065Z,97109.50
2019-03-22T23:23:55.251Z,97109.64
2019-03-22T23:26:21.416Z,97107.95
2019-03-22T23:28:47.549Z,97101.36
2019-03-22T23:31:13.694Z,97104.13
2019-03-22T23:33:39.813Z,97106.25
2019-03-22T23:36:05.841Z,97106.87
2019-03-22T23:38:31.974Z,97102.53
2019-03-22T23:40:57.911Z,97100.54
2019-03-22T23:43:24.132Z,97104.45
2019-03-22T23:45:50.173Z,97097.80
2019-03-22T23:48:16.306Z,97099.08
2019-03-22T23:50:42.439Z,97099.19
2019-03-22T23:53:08.565Z,97097.68
2019-03-22T23:55:34.700Z,97096.31
2019-03-22T23:58:00.737Z,97096.55
